Time;durP1;ratioP1;P1;durP2;ratioP2;P2;SDS_P1;SDS_P2;PMS_P1;PMS_P2;Temp;Humidity;BMP_temperature;BMP_pressure;BME280_temperature;BME280_humidity;BME280_pressure;Samples;Min_cycle;Max_cycle;Signal;HPM_P1;HPM_P2
2022/03/09 00:01:16;;;;;;;22.83;21.73;;;10.60;68.90;;;;;;4985621;28;20035;-90
2022/03/09 00:03:42;;;;;;;23.02;21.90;;;10.60;68.90;;;;;;4971184;28;20039;-91
2022/03/09 00:06:08;;;;;;;21.95;20.95;;;10.60;68.90;;;;;;4951134;29;20043;-91
2022/03/09 00:08:34;;;;;;;22.02;21.02;;;10.60;68.90;;;;;;4976752;28;20027;-90
2022/03/09 00:11:00;;;;;;;22.42;21.33;;;10.70;69.00;;;;;;4963216;28;20035;-91
2022/03/09 00:13:26;;;;;;;22.40;21.40;;;10.60;69.00;;;;;;4970523;28;20045;-91
2022/03/09 00:15:52;;;;;;;22.67;21.58;;;10.60;69.00;;;;;;4971963;28;20042;-90
2022/03/09 00:18:19;;;;;;;22.52;21.45;;;10.60;69.10;;;;;;4989708;28;20053;-91
2022/03/09 00:20:45;;;;;;;22.30;21.20;;;10.60;69.10;;;;;;4985417;28;20103;-91
2022/03/09 00:23:11;;;;;;;21.80;20.80;;;10.60;69.20;;;;;;4967476;28;20035;-89
2022/03/09 00:25:38;;;;;;;21.70;20.65;;;10.60;69.20;;;;;;4986643;28;20019;-91
2022/03/09 00:28:04;;;;;;;21.70;20.70;;;10.60;69.20;;;;;;4991000;28;20042;-91
2022/03/09 00:30:30;;;;;;;21.75;20.75;;;10.60;69.30;;;;;;4988998;28;20102;-91
2022/03/09 00:32:56;;;;;;;21.45;20.45;;;10.60;69.30;;;;;;4980233;28;20031;-91
2022/03/09 00:35:22;;;;;;;22.15;20.92;;;10.60;69.30;;;;;;4994787;28;20039;-90
2022/03/09 00:37:49;;;;;;;21.85;20.85;;;10.60;69.30;;;;;;4977323;28;20057;-91
2022/03/09 00:40:15;;;;;;;21.58;20.58;;;10.70;69.30;;;;;;4992084;28;20038;-91
2022/03/09 00:42:41;;;;;;;21.35;20.35;;;10.70;69.30;;;;;;4991235;28;20053;-90
2022/03/09 00:45:08;;;;;;;21.27;20.27;;;10.70;69.40;;;;;;4987364;28;20023;-90
2022/03/09 00:47:34;;;;;;;21.58;20.58;;;10.70;69.40;;;;;;4965586;28;20023;-91
2022/03/09 00:50:00;;;;;;;21.77;20.73;;;10.70;69.40;;;;;;4989426;28;20050;-90
2022/03/09 00:52:26;;;;;;;20.98;19.98;;;10.70;69.40;;;;;;4986524;28;20031;-90
2022/03/09 00:54:52;;;;;;;21.90;20.90;;;10.70;69.40;;;;;;4985197;28;20043;-90
2022/03/09 00:57:18;;;;;;;21.80;20.80;;;10.80;69.40;;;;;;4994497;28;20052;-90
2022/03/09 00:59:44;;;;;;;21.80;20.80;;;10.70;69.40;;;;;;4993930;28;20498;-91
2022/03/09 01:02:10;;;;;;;22.45;21.45;;;10.70;69.40;;;;;;4988633;28;20049;-91
2022/03/09 01:04:36;;;;;;;21.63;20.63;;;10.70;69.40;;;;;;4990248;28;20038;-91
2022/03/09 01:07:03;;;;;;;21.00;20.00;;;10.70;69.50;;;;;;4943977;28;20054;-91
2022/03/09 01:09:29;;;;;;;1505.50;755.22;;;10.70;69.50;;;;;;4979953;28;20035;-91
2022/03/09 01:11:57;;;;;;;22.70;21.58;;;10.70;69.60;;;;;;4993510;28;20027;-90
2022/03/09 01:14:23;;;;;;;21.75;20.55;;;10.70;69.60;;;;;;4996123;28;20025;-91
2022/03/09 01:16:49;;;;;;;22.02;20.92;;;10.70;69.60;;;;;;4994841;28;20057;-91
2022/03/09 01:19:16;;;;;;;1505.43;755.17;;;10.80;69.70;;;;;;4999226;28;20027;-89
2022/03/09 01:21:42;;;;;;;1999.90;999.90;;;10.70;69.60;;;;;;4999222;28;20484;-90
2022/03/09 01:24:08;;;;;;;1999.90;999.90;;;10.80;69.70;;;;;;4983686;28;20030;-90
2022/03/09 01:26:37;;;;;;;1999.90;999.90;;;10.70;69.90;;;;;;5000424;28;20030;-90
2022/03/09 01:29:03;;;;;;;1999.90;999.90;;;10.70;70.00;;;;;;4991090;28;20416;-91
2022/03/09 01:31:29;;;;;;;1999.90;999.90;;;10.60;70.10;;;;;;4978830;28;20034;-91
2022/03/09 01:33:57;;;;;;;1999.90;999.90;;;10.60;70.30;;;;;;4977514;28;20051;-90
2022/03/09 01:36:23;;;;;;;1999.90;999.90;;;10.50;70.20;;;;;;4987086;28;20043;-91
2022/03/09 01:38:49;;;;;;;1999.90;999.90;;;10.50;70.10;;;;;;4980507;28;20045;-91
2022/03/09 01:41:15;;;;;;;1999.90;999.90;;;10.50;70.10;;;;;;4997907;28;20022;-90
2022/03/09 01:43:41;;;;;;;1999.90;999.90;;;10.50;70.20;;;;;;4996332;28;20050;-91
2022/03/09 01:46:08;;;;;;;1999.90;999.90;;;10.50;70.20;;;;;;4989296;28;20039;-91
2022/03/09 01:48:34;;;;;;;1999.90;999.90;;;10.60;70.20;;;;;;4972212;28;20045;-90
2022/03/09 01:51:00;;;;;;;1999.90;999.90;;;10.50;70.20;;;;;;4995579;28;20043;-91
2022/03/09 01:53:26;;;;;;;1999.90;999.90;;;10.60;70.30;;;;;;4989233;28;20039;-91
2022/03/09 01:55:52;;;;;;;1999.90;999.90;;;10.50;70.30;;;;;;4980176;28;20043;-89
2022/03/09 01:58:18;;;;;;;1999.90;999.90;;;10.50;70.30;;;;;;4984509;28;20039;-90
2022/03/09 02:00:44;;;;;;;1999.90;999.90;;;10.50;70.30;;;;;;4995304;28;20049;-90
2022/03/09 02:03:10;;;;;;;1999.90;999.90;;;10.60;70.40;;;;;;4975573;28;20053;-91
2022/03/09 02:05:36;;;;;;;1999.90;999.90;;;10.60;70.40;;;;;;4974157;28;20045;-91
2022/03/09 02:10:48;;;;;;;1999.90;999.90;;;10.60;70.40;;;;;;4990697;28;20030;-91
2022/03/09 02:13:14;;;;;;;1999.90;999.90;;;10.50;70.40;;;;;;4990293;28;20030;-89
2022/03/09 02:15:44;;;;;;;1999.90;999.90;;;10.50;70.40;;;;;;4988703;28;20035;-91
2022/03/09 02:18:10;;;;;;;1999.90;999.90;;;10.50;70.40;;;;;;4974669;28;20047;-91
2022/03/09 02:20:41;;;;;;;1999.90;999.90;;;10.50;70.50;;;;;;4980668;28;20035;-90
2022/03/09 02:23:07;;;;;;;1999.90;999.90;;;10.50;70.60;;;;;;4980710;28;20031;-91
2022/03/09 02:25:33;;;;;;;1999.90;999.90;;;10.50;70.70;;;;;;4976942;28;20041;-91
2022/03/09 02:28:00;;;;;;;1999.90;999.90;;;10.50;70.70;;;;;;4973394;28;20039;-91
2022/03/09 02:30:26;;;;;;;1999.90;999.90;;;10.50;70.70;;;;;;4954874;28;20039;-90
2022/03/09 02:32:52;;;;;;;1505.70;755.40;;;10.50;70.60;;;;;;4988354;28;20045;-91
2022/03/09 02:35:19;;;;;;;22.55;21.45;;;10.50;70.60;;;;;;4985867;28;20034;-91
2022/03/09 02:37:45;;;;;;;1505.28;755.03;;;10.50;70.50;;;;;;4977407;28;20054;-91
2022/03/09 02:40:13;;;;;;;1505.57;755.33;;;10.60;70.60;;;;;;4959795;28;20058;-91
2022/03/09 02:42:39;;;;;;;1505.40;755.15;;;10.60;70.60;;;;;;4971342;28;20392;-91
2022/03/09 02:45:05;;;;;;;21.83;20.83;;;10.60;70.50;;;;;;4985915;28;20035;-90
2022/03/09 02:47:32;;;;;;;21.33;20.33;;;10.60;70.50;;;;;;4988254;28;20046;-91
2022/03/09 02:49:58;;;;;;;22.63;21.42;;;10.60;70.50;;;;;;4969626;28;20023;-90
2022/03/09 02:52:24;;;;;;;21.88;20.88;;;10.60;70.50;;;;;;4968610;28;20023;-90
2022/03/09 02:54:50;;;;;;;22.38;21.15;;;10.60;70.50;;;;;;4984589;28;20042;-90
2022/03/09 02:57:17;;;;;;;1999.90;999.90;;;10.60;70.50;;;;;;4987231;28;20042;-90
2022/03/09 02:59:43;;;;;;;1505.35;755.10;;;10.70;70.70;;;;;;4981024;28;20027;-91
2022/03/09 03:02:09;;;;;;;1999.90;999.90;;;10.60;70.60;;;;;;4958131;28;20035;-91
2022/03/09 03:04:35;;;;;;;1505.45;755.20;;;10.60;70.60;;;;;;4972866;28;20043;-90
2022/03/09 03:07:01;;;;;;;1999.90;999.90;;;10.70;70.70;;;;;;4973430;28;20031;-91
2022/03/09 03:09:27;;;;;;;1999.90;999.90;;;10.60;70.70;;;;;;4973592;28;20050;-91
2022/03/09 03:11:53;;;;;;;1999.90;999.90;;;10.60;70.80;;;;;;4972056;28;20041;-90
2022/03/09 03:14:19;;;;;;;1999.90;999.90;;;10.60;70.90;;;;;;4956826;28;20070;-91
2022/03/09 03:16:46;;;;;;;1505.55;755.30;;;10.60;71.00;;;;;;4944180;28;20057;-90
2022/03/09 03:19:12;;;;;;;23.33;22.23;;;10.60;70.90;;;;;;4973036;28;20046;-90
2022/03/09 03:21:38;;;;;;;21.92;20.73;;;10.60;70.90;;;;;;4963820;28;20404;-91
2022/03/09 03:24:04;;;;;;;22.25;20.90;;;10.60;70.80;;;;;;4942231;28;20054;-91
2022/03/09 03:26:30;;;;;;;1505.22;754.97;;;10.60;70.80;;;;;;4984506;28;20042;-91
2022/03/09 03:28:58;;;;;;;22.08;21.08;;;10.60;70.80;;;;;;4987808;28;20021;-91
2022/03/09 03:31:24;;;;;;;20.92;19.92;;;10.60;70.90;;;;;;4972329;28;20043;-90
2022/03/09 03:33:51;;;;;;;20.60;19.70;;;10.60;70.90;;;;;;4987400;28;20026;-91
2022/03/09 03:36:17;;;;;;;21.13;20.13;;;10.60;71.00;;;;;;4986528;28;20093;-90
2022/03/09 03:38:44;;;;;;;22.65;21.55;;;10.60;71.00;;;;;;4988941;28;20061;-90
2022/03/09 03:41:10;;;;;;;22.10;21.10;;;10.60;71.00;;;;;;4990986;28;20034;-91
2022/03/09 03:43:36;;;;;;;21.33;20.33;;;10.60;71.00;;;;;;4977485;28;20023;-91
2022/03/09 03:46:02;;;;;;;21.83;20.83;;;10.60;71.00;;;;;;4994445;28;20031;-90
2022/03/09 03:48:28;;;;;;;21.45;20.45;;;10.60;71.10;;;;;;4994238;28;20037;-91
2022/03/09 03:50:54;;;;;;;22.23;21.00;;;10.60;71.10;;;;;;4993355;28;20039;-91
2022/03/09 03:53:20;;;;;;;21.58;20.58;;;10.60;71.10;;;;;;4987803;28;20475;-91
2022/03/09 03:55:46;;;;;;;21.83;20.73;;;10.60;71.90;;;;;;4973825;28;20053;-90
2022/03/09 03:58:12;;;;;;;21.77;20.70;;;10.50;71.10;;;;;;4990393;28;20038;-90
2022/03/09 04:00:40;;;;;;;21.15;20.15;;;10.50;71.10;;;;;;4977608;28;20031;-90
2022/03/09 04:03:06;;;;;;;22.27;21.10;;;10.50;71.20;;;;;;4994468;28;20472;-90
2022/03/09 04:05:32;;;;;;;20.65;19.67;;;10.50;71.20;;;;;;4982789;28;20038;-90
2022/03/09 04:07:58;;;;;;;20.42;19.52;;;10.50;71.20;;;;;;4971431;28;20027;-81
2022/03/09 04:10:25;;;;;;;22.08;20.98;;;10.50;71.20;;;;;;4972294;28;20039;-83
2022/03/09 04:12:51;;;;;;;21.35;20.35;;;10.50;71.20;;;;;;4954428;28;20038;-83
2022/03/09 04:15:17;;;;;;;21.20;20.20;;;10.50;71.20;;;;;;4968919;28;20030;-85
2022/03/09 04:17:47;;;;;;;21.08;20.08;;;10.50;72.00;;;;;;4968872;28;20049;-82
2022/03/09 04:20:14;;;;;;;21.35;20.35;;;10.50;71.20;;;;;;4971103;28;20035;-82
2022/03/09 04:22:40;;;;;;;20.80;19.80;;;10.50;71.30;;;;;;4971098;28;20035;-83
2022/03/09 04:25:07;;;;;;;22.60;21.48;;;10.50;71.30;;;;;;4957446;28;20389;-83
2022/03/09 04:27:33;;;;;;;21.27;20.27;;;10.50;71.20;;;;;;4955154;28;20058;-83
2022/03/09 04:30:00;;;;;;;20.83;19.83;;;10.50;71.30;;;;;;4940112;28;20051;-82
2022/03/09 04:32:26;;;;;;;20.58;19.67;;;10.50;71.20;;;;;;4955164;28;20499;-84
2022/03/09 04:34:52;;;;;;;21.17;20.17;;;10.50;71.30;;;;;;4969848;28;20023;-83
2022/03/09 04:37:19;;;;;;;20.48;19.52;;;10.50;71.30;;;;;;4971777;28;20114;-83
2022/03/09 04:39:45;;;;;;;20.80;19.80;;;10.50;71.20;;;;;;4951384;28;20047;-83
2022/03/09 04:42:12;;;;;;;22.63;21.35;;;10.50;71.20;;;;;;4969714;28;20499;-83
2022/03/09 04:44:38;;;;;;;21.27;20.27;;;10.60;71.30;;;;;;4970661;28;20038;-82
2022/03/09 04:47:04;;;;;;;21.00;20.00;;;10.60;71.30;;;;;;4970916;28;20034;-82
2022/03/09 04:49:30;;;;;;;21.05;20.05;;;10.60;71.30;;;;;;4987312;28;20062;-83
2022/03/09 04:51:56;;;;;;;21.33;20.25;;;10.60;71.30;;;;;;4971127;28;20031;-85
2022/03/09 04:54:22;;;;;;;21.50;20.50;;;10.60;71.30;;;;;;4970814;28;20480;-85
2022/03/09 04:56:49;;;;;;;22.33;21.33;;;10.60;71.30;;;;;;4955061;28;20042;-85
2022/03/09 04:59:17;;;;;;;21.20;20.20;;;10.60;71.30;;;;;;4972293;28;20027;-83
2022/03/09 05:01:43;;;;;;;21.58;20.58;;;10.60;71.30;;;;;;4971930;28;20034;-85
2022/03/09 05:04:09;;;;;;;21.63;20.60;;;10.60;71.30;;;;;;4969452;28;20038;-83
2022/03/09 05:06:35;;;;;;;21.35;20.35;;;10.60;71.30;;;;;;4971799;28;20030;-86
2022/03/09 05:09:01;;;;;;;21.70;20.60;;;10.60;71.30;;;;;;4938592;28;20046;-85
2022/03/09 05:11:27;;;;;;;20.95;19.95;;;10.60;71.30;;;;;;4971350;28;20043;-85
2022/03/09 05:13:53;;;;;;;21.73;20.73;;;10.60;71.40;;;;;;4971051;28;20511;-82
2022/03/09 05:16:19;;;;;;;22.05;21.05;;;10.60;71.30;;;;;;4970802;28;20046;-85
2022/03/09 05:18:45;;;;;;;21.35;20.33;;;10.70;71.40;;;;;;4971160;28;20496;-83
2022/03/09 05:21:11;;;;;;;19.80;18.90;;;10.70;71.40;;;;;;4973028;28;20031;-93
2022/03/09 05:23:37;;;;;;;21.48;20.35;;;10.70;71.50;;;;;;4972381;28;20035;-89
2022/03/09 05:26:04;;;;;;;21.40;20.40;;;10.70;71.50;;;;;;4953929;28;20038;-89
2022/03/09 05:28:30;;;;;;;20.83;19.83;;;10.70;71.60;;;;;;4972361;28;20031;-89
2022/03/09 05:30:56;;;;;;;21.75;20.75;;;10.60;71.50;;;;;;4954169;28;20043;-89
2022/03/09 05:33:22;;;;;;;21.50;20.50;;;10.70;71.60;;;;;;4972693;28;20042;-89
2022/03/09 05:35:48;;;;;;;21.63;20.45;;;10.70;71.60;;;;;;4972602;28;20384;-89
2022/03/09 05:38:14;;;;;;;21.00;20.00;;;10.60;71.60;;;;;;4955342;28;20043;-89
2022/03/09 05:40:41;;;;;;;21.83;20.73;;;10.70;71.70;;;;;;4955841;28;20037;-90
2022/03/09 05:43:07;;;;;;;1999.90;999.90;;;10.70;71.70;;;;;;4959697;28;20030;-89
2022/03/09 05:45:33;;;;;;;22.23;21.23;;;10.70;71.80;;;;;;4974749;28;20042;-89
2022/03/09 05:47:59;;;;;;;20.98;19.98;;;10.60;71.90;;;;;;4958931;28;20035;-89
2022/03/09 05:50:25;;;;;;;21.15;20.15;;;10.60;71.90;;;;;;4958395;28;20031;-89
2022/03/09 05:52:51;;;;;;;22.58;21.48;;;10.60;71.90;;;;;;4958761;28;20031;-90
2022/03/09 05:55:17;;;;;;;20.77;19.77;;;10.60;71.90;;;;;;4943109;28;20401;-88
2022/03/09 05:57:44;;;;;;;21.45;20.45;;;10.60;71.90;;;;;;4975398;28;20039;-90
2022/03/09 06:00:10;;;;;;;20.20;19.30;;;10.60;71.90;;;;;;4975063;28;20026;-91
2022/03/09 06:02:36;;;;;;;21.63;20.63;;;10.60;71.90;;;;;;4955069;28;20397;-90
2022/03/09 06:05:03;;;;;;;21.00;20.00;;;10.60;71.90;;;;;;4958760;28;20041;-89
2022/03/09 06:07:31;;;;;;;21.38;20.38;;;10.60;71.90;;;;;;4976806;28;20023;-89
2022/03/09 06:09:58;;;;;;;21.00;20.00;;;10.60;71.90;;;;;;4978426;28;20054;-91
2022/03/09 06:12:24;;;;;;;21.35;20.13;;;10.60;71.90;;;;;;4983476;28;20038;-89
2022/03/09 06:14:50;;;;;;;20.70;19.70;;;10.60;71.90;;;;;;4983614;28;20036;-89
2022/03/09 06:17:16;;;;;;;21.13;20.13;;;10.60;71.90;;;;;;4981775;28;20043;-89
2022/03/09 06:19:42;;;;;;;21.30;20.30;;;10.60;71.90;;;;;;4966001;28;20365;-88
2022/03/09 06:22:08;;;;;;;21.85;20.75;;;10.70;72.00;;;;;;4982957;28;20035;-89
2022/03/09 06:24:34;;;;;;;21.20;20.05;;;10.70;72.00;;;;;;4981679;28;20027;-89
2022/03/09 06:27:01;;;;;;;21.48;20.38;;;10.60;71.90;;;;;;4982595;28;20035;-90
2022/03/09 06:29:27;;;;;;;21.50;20.50;;;10.60;71.90;;;;;;4981935;28;20057;-88
2022/03/09 06:31:53;;;;;;;21.05;20.05;;;10.60;71.90;;;;;;4965437;28;20043;-87
2022/03/09 06:34:19;;;;;;;21.65;20.65;;;10.70;72.00;;;;;;4966707;28;20043;-90
2022/03/09 06:36:45;;;;;;;21.27;20.27;;;10.70;72.00;;;;;;4983639;28;20476;-87
2022/03/09 06:39:12;;;;;;;20.38;19.42;;;10.70;72.00;;;;;;4981997;28;20051;-90
2022/03/09 06:41:42;;;;;;;21.83;20.73;;;10.70;72.00;;;;;;4966458;28;20033;-90
2022/03/09 06:44:12;;;;;;;21.63;20.63;;;10.70;72.10;;;;;;4980486;28;20027;-88
2022/03/09 06:46:39;;;;;;;21.05;20.05;;;10.70;72.20;;;;;;4973203;28;20042;-88
2022/03/09 06:49:05;;;;;;;21.40;20.40;;;10.60;72.10;;;;;;4953343;28;20396;-88
2022/03/09 06:51:31;;;;;;;21.75;20.65;;;10.60;72.20;;;;;;4941412;28;20526;-92
2022/03/09 06:53:57;;;;;;;20.45;19.55;;;10.60;72.20;;;;;;4957980;28;20031;-93
2022/03/09 06:56:24;;;;;;;22.85;21.75;;;10.60;72.20;;;;;;4956788;28;20468;-87
2022/03/09 06:58:50;;;;;;;21.98;20.98;;;10.60;72.20;;;;;;4972803;28;20064;-86
2022/03/09 07:01:16;;;;;;;21.50;20.50;;;10.60;72.20;;;;;;4972453;28;20035;-84
2022/03/09 07:03:42;;;;;;;20.92;19.83;;;10.60;72.10;;;;;;4940625;28;20043;-89
2022/03/09 07:06:08;;;;;;;20.23;19.33;;;10.60;72.20;;;;;;4957158;28;20058;-85
2022/03/09 07:08:34;;;;;;;21.67;20.67;;;10.60;72.20;;;;;;4970275;28;20049;-87
2022/03/09 07:11:00;;;;;;;1999.90;999.90;;;10.60;72.20;;;;;;4954507;28;20039;-85
2022/03/09 07:13:26;;;;;;;1505.18;754.92;;;10.60;72.20;;;;;;4970610;28;20034;-87
2022/03/09 07:15:52;;;;;;;21.48;20.48;;;10.60;72.30;;;;;;4969548;28;20388;-86
2022/03/09 07:18:19;;;;;;;22.88;21.52;;;10.50;72.20;;;;;;4970507;28;20051;-91
2022/03/09 07:20:45;;;;;;;21.48;20.48;;;10.60;72.30;;;;;;4954936;28;20039;-85
2022/03/09 07:23:12;;;;;;;22.25;20.65;;;10.50;72.20;;;;;;4954881;28;20400;-89
2022/03/09 07:25:40;;;;;;;21.85;20.85;;;10.60;72.30;;;;;;4956102;28;20034;-91
2022/03/09 07:28:06;;;;;;;21.33;20.23;;;10.60;72.20;;;;;;4970528;28;20037;-91
2022/03/09 07:30:32;;;;;;;20.98;19.98;;;10.60;72.20;;;;;;4953480;28;20381;-88
2022/03/09 07:32:58;;;;;;;21.10;20.08;;;10.60;72.20;;;;;;4970379;28;20218;-88
2022/03/09 07:35:25;;;;;;;21.30;20.30;;;10.60;72.20;;;;;;4969941;28;20035;-89
2022/03/09 07:37:51;;;;;;;21.33;20.33;;;10.60;72.10;;;;;;4971043;28;20050;-88
2022/03/09 07:40:17;;;;;;;21.15;20.05;;;10.70;72.20;;;;;;4956010;28;20042;-88
2022/03/09 07:42:43;;;;;;;21.80;20.77;;;10.70;72.10;;;;;;4937900;28;20047;-87
2022/03/09 07:45:10;;;;;;;21.55;20.55;;;10.70;72.40;;;;;;4953223;28;20045;-90
2022/03/09 07:47:36;;;;;;;21.30;20.30;;;10.70;72.10;;;;;;4954524;28;20027;-89
2022/03/09 07:50:04;;;;;;;22.00;20.90;;;10.70;72.00;;;;;;4969598;28;20476;-89
2022/03/09 07:52:30;;;;;;;22.08;21.08;;;10.80;72.10;;;;;;4957149;28;20038;-88
2022/03/09 07:54:56;;;;;;;1505.18;754.92;;;10.80;72.00;;;;;;4947568;28;20058;-87
2022/03/09 07:57:22;;;;;;;21.92;20.73;;;10.80;72.10;;;;;;4954906;28;20050;-91
2022/03/09 07:59:48;;;;;;;21.63;20.63;;;10.80;72.00;;;;;;4953547;28;20034;-90
2022/03/09 08:02:14;;;;;;;21.60;20.60;;;10.90;72.00;;;;;;4971264;28;20034;-89
2022/03/09 08:04:40;;;;;;;1999.90;999.90;;;10.90;72.00;;;;;;4971839;28;20392;-87
2022/03/09 08:07:06;;;;;;;1999.90;999.90;;;10.90;71.90;;;;;;4970181;28;20053;-88
2022/03/09 08:09:32;;;;;;;1999.90;999.90;;;10.90;71.90;;;;;;4953925;28;20041;-88
2022/03/09 08:11:58;;;;;;;1999.90;999.90;;;10.90;71.90;;;;;;4969550;28;20053;-88
2022/03/09 08:14:25;;;;;;;1999.90;999.90;;;11.00;72.00;;;;;;4971470;28;20055;-83
2022/03/09 08:16:51;;;;;;;1999.90;999.90;;;11.00;72.00;;;;;;4971023;28;20523;-85
2022/03/09 08:19:17;;;;;;;1999.90;999.90;;;11.00;71.90;;;;;;4955353;28;20050;-91
2022/03/09 08:21:43;;;;;;;1999.90;999.90;;;11.00;71.90;;;;;;4969232;28;20491;-87
2022/03/09 08:24:09;;;;;;;1999.90;999.90;;;11.00;71.90;;;;;;4954502;28;20038;-90
2022/03/09 08:26:35;;;;;;;1999.90;999.90;;;11.00;71.90;;;;;;4969151;28;20038;-90
2022/03/09 08:29:02;;;;;;;1999.90;999.90;;;11.10;71.90;;;;;;4969291;28;20042;-91
2022/03/09 08:31:28;;;;;;;1999.90;999.90;;;11.10;71.90;;;;;;4955690;28;20031;-90
2022/03/09 08:33:55;;;;;;;1999.90;999.90;;;11.10;71.80;;;;;;4954728;28;20042;-90
2022/03/09 08:36:22;;;;;;;1505.65;755.38;;;11.20;71.80;;;;;;4939743;28;20049;-90
2022/03/09 08:38:48;;;;;;;22.70;21.60;;;11.30;71.80;;;;;;4952776;28;20050;-91
2022/03/09 08:41:14;;;;;;;1999.90;999.90;;;11.40;71.60;;;;;;4968223;28;20038;-92
2022/03/09 08:43:40;;;;;;;1999.90;999.90;;;11.60;71.30;;;;;;4955060;28;20050;-90
2022/03/09 08:46:06;;;;;;;1999.90;999.90;;;11.70;71.20;;;;;;4952420;28;20417;-89
2022/03/09 08:48:32;;;;;;;1999.90;999.90;;;11.70;71.10;;;;;;4971973;28;20026;-91
2022/03/09 08:50:59;;;;;;;1999.90;999.90;;;11.80;71.10;;;;;;4970279;28;20023;-92
2022/03/09 08:53:25;;;;;;;1999.90;999.90;;;12.00;71.00;;;;;;4967800;28;20412;-86
2022/03/09 08:55:51;;;;;;;1999.90;999.90;;;12.10;70.60;;;;;;4951554;28;20058;-86
2022/03/09 08:58:17;;;;;;;1999.90;999.90;;;12.30;70.40;;;;;;4953516;28;20506;-86
2022/03/09 09:00:44;;;;;;;1999.90;999.90;;;12.60;70.10;;;;;;4950598;28;20031;-86
2022/03/09 09:03:10;;;;;;;1999.90;999.90;;;12.90;69.50;;;;;;4953754;28;20027;-85
2022/03/09 09:05:36;;;;;;;1999.90;999.90;;;13.30;68.80;;;;;;4968645;28;20098;-92
2022/03/09 09:08:03;;;;;;;1999.90;999.90;;;13.40;68.50;;;;;;4970536;28;20031;-90
2022/03/09 09:10:29;;;;;;;1999.90;999.90;;;13.70;68.20;;;;;;4939415;28;20593;-91
2022/03/09 09:12:57;;;;;;;1999.90;999.90;;;13.90;67.90;;;;;;4949669;28;20484;-91
2022/03/09 09:15:24;;;;;;;1999.90;999.90;;;14.20;67.30;;;;;;4970445;28;20383;-90
2022/03/09 09:18:02;;;;;;;1999.90;999.90;;;14.40;67.00;;;;;;4971945;28;20047;-90
2022/03/09 09:20:28;;;;;;;1999.90;999.90;;;14.60;66.70;;;;;;4955701;28;20034;-88
2022/03/09 09:22:55;;;;;;;1999.90;999.90;;;14.80;66.50;;;;;;4967874;28;20038;-88
2022/03/09 09:25:23;;;;;;;1999.90;999.90;;;15.10;66.20;;;;;;4976730;28;20384;-87
2022/03/09 09:27:50;;;;;;;1999.90;999.90;;;15.20;65.90;;;;;;4970632;28;20034;-88
2022/03/09 09:30:16;;;;;;;1999.90;999.90;;;15.40;65.80;;;;;;4953645;28;20050;-88
2022/03/09 09:32:42;;;;;;;1999.90;999.90;;;15.50;65.50;;;;;;4972974;28;20034;-85
2022/03/09 09:35:10;;;;;;;1999.90;999.90;;;15.60;65.30;;;;;;4957253;28;20023;-85
2022/03/09 09:37:37;;;;;;;1999.90;999.90;;;15.70;65.40;;;;;;4970822;28;20027;-87
2022/03/09 09:40:04;;;;;;;1999.90;999.90;;;15.90;65.30;;;;;;4972702;28;20031;-88
2022/03/09 09:42:31;;;;;;;1999.90;999.90;;;16.10;65.80;;;;;;4970591;28;20488;-86
2022/03/09 09:45:00;;;;;;;1999.90;999.90;;;16.10;64.50;;;;;;4942313;28;20046;-87
2022/03/09 09:47:27;;;;;;;1999.90;999.90;;;16.00;64.60;;;;;;4970531;28;20034;-85
2022/03/09 09:49:55;;;;;;;1999.90;999.90;;;15.90;64.40;;;;;;4956517;28;20071;-87
2022/03/09 09:52:27;;;;;;;1999.90;999.90;;;15.80;64.80;;;;;;4959117;28;20035;-86
2022/03/09 09:54:55;;;;;;;1999.90;999.90;;;15.70;65.00;;;;;;4956238;28;20038;-90
2022/03/09 09:57:21;;;;;;;1999.90;999.90;;;15.70;65.10;;;;;;4971017;28;20038;-86
2022/03/09 09:59:48;;;;;;;1999.90;999.90;;;15.80;64.90;;;;;;4969442;28;20039;-90
2022/03/09 10:02:14;;;;;;;1999.90;999.90;;;15.80;64.90;;;;;;4972833;28;20056;-86
2022/03/09 10:04:41;;;;;;;1999.90;999.90;;;15.80;64.50;;;;;;4940928;28;20034;-86
2022/03/09 10:07:07;;;;;;;1999.90;999.90;;;15.80;64.40;;;;;;4956444;28;20127;-86
2022/03/09 10:09:38;;;;;;;1999.90;999.90;;;15.70;64.10;;;;;;4942101;28;20051;-88
2022/03/09 10:12:06;;;;;;;1999.90;999.90;;;15.60;63.80;;;;;;4970400;28;20031;-85
2022/03/09 10:14:51;;;;;;;1999.90;999.90;;;15.50;64.10;;;;;;4972822;28;20035;-85
2022/03/09 10:17:18;;;;;;;1999.90;999.90;;;15.60;64.30;;;;;;4953700;28;20373;-89
2022/03/09 10:19:46;;;;;;;1999.90;999.90;;;15.80;64.20;;;;;;4957606;28;20026;-85
2022/03/09 10:22:25;;;;;;;1999.90;999.90;;;16.00;63.90;;;;;;4972973;28;20026;-90
2022/03/09 10:24:51;;;;;;;1999.90;999.90;;;16.20;63.10;;;;;;4973482;28;20034;-92
2022/03/09 10:27:36;;;;;;;1999.90;999.90;;;16.30;62.70;;;;;;4971204;28;20038;-90
2022/03/09 10:30:13;;;;;;;1999.90;999.90;;;16.20;62.60;;;;;;4971322;28;20065;-90
2022/03/09 10:32:52;;;;;;;1999.90;999.90;;;16.20;62.90;;;;;;4953948;28;20018;-91
2022/03/09 10:35:43;;;;;;;1999.90;999.90;;;16.40;62.90;;;;;;4972582;28;20509;-89
2022/03/09 10:38:30;;;;;;;1999.90;999.90;;;16.60;62.50;;;;;;4967296;28;20043;-91
2022/03/09 10:40:58;;;;;;;1999.90;999.90;;;16.70;62.20;;;;;;4972156;28;20282;-92
2022/03/09 10:43:28;;;;;;;1999.90;999.90;;;16.80;62.10;;;;;;4971643;28;20023;-91
2022/03/09 10:46:03;;;;;;;1999.90;999.90;;;16.90;61.90;;;;;;4950313;28;20038;-87
2022/03/09 10:48:55;;;;;;;1999.90;999.90;;;17.00;61.80;;;;;;4973089;28;20054;-86
2022/03/09 10:51:31;;;;;;;1999.90;999.90;;;17.20;61.50;;;;;;4972598;28;20412;-87
2022/03/09 10:53:57;;;;;;;1999.90;999.90;;;17.40;61.20;;;;;;4971098;28;20057;-89
2022/03/09 10:56:23;;;;;;;1999.90;999.90;;;17.50;61.00;;;;;;4954936;28;20031;-90
2022/03/09 10:58:50;;;;;;;1999.90;999.90;;;17.50;60.90;;;;;;4980981;28;20427;-86
2022/03/09 11:01:19;;;;;;;1999.90;999.90;;;17.40;60.10;;;;;;4972418;28;20042;-84
2022/03/09 11:03:46;;;;;;;1999.90;999.90;;;17.20;60.30;;;;;;4941051;28;20039;-84
2022/03/09 11:06:12;;;;;;;1999.90;999.90;;;17.10;60.70;;;;;;4953997;28;20032;-85
2022/03/09 11:08:39;;;;;;;1999.90;999.90;;;17.20;60.80;;;;;;4956459;28;20037;-90
2022/03/09 11:11:05;;;;;;;1999.90;999.90;;;17.20;60.70;;;;;;4971523;28;20706;-88
2022/03/09 11:13:33;;;;;;;1999.90;999.90;;;17.30;60.40;;;;;;4971692;28;20023;-89
2022/03/09 11:15:59;;;;;;;1999.90;999.90;;;17.40;60.10;;;;;;4941366;28;20389;-88
2022/03/09 11:18:28;;;;;;;1999.90;999.90;;;17.50;60.00;;;;;;4969977;28;20042;-87
2022/03/09 11:20:56;;;;;;;1999.90;999.90;;;17.60;59.80;;;;;;4954620;28;20038;-89
2022/03/09 11:23:22;;;;;;;1999.90;999.90;;;17.70;59.60;;;;;;4968760;28;20038;-91
2022/03/09 11:25:59;;;;;;;1999.90;999.90;;;17.70;59.30;;;;;;4939775;28;20037;-93
2022/03/09 11:28:28;;;;;;;1999.90;999.90;;;17.50;59.00;;;;;;4957604;28;20031;-91
2022/03/09 11:31:05;;;;;;;1999.90;999.90;;;17.40;59.20;;;;;;4938780;28;20039;-89
2022/03/09 11:33:41;;;;;;;1999.90;999.90;;;17.40;59.40;;;;;;4953356;28;20026;-90
2022/03/09 11:36:29;;;;;;;1999.90;999.90;;;17.50;59.20;;;;;;4986568;28;20045;-88
2022/03/09 11:39:04;;;;;;;1999.90;999.90;;;17.70;59.10;;;;;;4970395;28;20059;-87
2022/03/09 11:41:36;;;;;;;1999.90;999.90;;;17.80;59.00;;;;;;4967891;28;20038;-84
2022/03/09 11:44:24;;;;;;;1999.90;999.90;;;17.80;58.50;;;;;;4971390;28;20027;-90
2022/03/09 11:47:04;;;;;;;1999.90;999.90;;;17.60;58.30;;;;;;4973040;28;20027;-92
2022/03/09 11:49:41;;;;;;;1999.90;999.90;;;17.40;58.20;;;;;;4943362;28;20043;-93
2022/03/09 11:52:11;;;;;;;1999.90;999.90;;;17.30;58.50;;;;;;4973949;28;20507;-84
2022/03/09 11:54:59;;;;;;;1999.90;999.90;;;17.30;58.60;;;;;;4968266;28;20034;-86
2022/03/09 11:57:45;;;;;;;1999.90;999.90;;;17.50;58.40;;;;;;4965958;28;20043;-87
2022/03/09 12:00:13;;;;;;;1999.90;999.90;;;17.70;58.20;;;;;;4970478;28;20107;-85
2022/03/09 12:02:43;;;;;;;1999.90;999.90;;;17.80;57.80;;;;;;4968443;28;20041;-86
2022/03/09 12:05:24;;;;;;;1999.90;999.90;;;17.90;57.80;;;;;;4970382;28;20030;-87
2022/03/09 12:07:54;;;;;;;1999.90;999.90;;;18.00;57.60;;;;;;4970508;28;20031;-87
2022/03/09 12:10:22;;;;;;;1999.90;999.90;;;18.10;57.20;;;;;;4987688;28;20039;-87
2022/03/09 12:13:42;;;;;;;1999.90;999.90;;;18.00;57.20;;;;;;4965641;28;20038;-86
2022/03/09 12:16:14;;;;;;;1999.90;999.90;;;18.00;57.30;;;;;;4915109;29;20036;-86
2022/03/09 12:18:48;;;;;;;1999.90;999.90;;;18.10;57.10;;;;;;4896392;29;20039;-86